sensor_id;sensor_type;location;lat;lon;timestamp;temperature;humidity
8269;DHT22;4174;48.304;16.364;2023-08-17T00:04:26;19.80;99.90
8269;DHT22;4174;48.304;16.364;2023-08-17T00:10:29;19.80;99.90
8269;DHT22;4174;48.304;16.364;2023-08-17T00:16:33;19.80;99.90
8269;DHT22;4174;48.304;16.364;2023-08-17T00:22:36;19.80;99.90
8269;DHT22;4174;48.304;16.364;2023-08-17T00:28:41;19.80;99.90
8269;DHT22;4174;48.304;16.364;2023-08-17T00:34:45;19.80;99.90
8269;DHT22;4174;48.304;16.364;2023-08-17T00:40:48;19.80;99.90
8269;DHT22;4174;48.304;16.364;2023-08-17T00:46:51;19.80;99.90
8269;DHT22;4174;48.304;16.364;2023-08-17T00:52:53;19.70;99.90
8269;DHT22;4174;48.304;16.364;2023-08-17T00:58:57;19.80;99.90
8269;DHT22;4174;48.304;16.364;2023-08-17T01:05:00;19.70;99.90
8269;DHT22;4174;48.304;16.364;2023-08-17T01:11:27;19.70;99.90
8269;DHT22;4174;48.304;16.364;2023-08-17T01:17:33;19.60;99.90
8269;DHT22;4174;48.304;16.364;2023-08-17T01:23:34;19.60;99.90
8269;DHT22;4174;48.304;16.364;2023-08-17T01:29:37;19.70;99.90
8269;DHT22;4174;48.304;16.364;2023-08-17T01:35:46;19.60;99.90
8269;DHT22;4174;48.304;16.364;2023-08-17T01:41:50;19.60;99.90
8269;DHT22;4174;48.304;16.364;2023-08-17T01:47:54;19.60;99.90
8269;DHT22;4174;48.304;16.364;2023-08-17T01:53:57;19.60;99.90
8269;DHT22;4174;48.304;16.364;2023-08-17T02:00:00;19.60;99.90
8269;DHT22;4174;48.304;16.364;2023-08-17T02:06:03;19.60;99.90
8269;DHT22;4174;48.304;16.364;2023-08-17T02:12:07;19.60;99.90
8269;DHT22;4174;48.304;16.364;2023-08-17T02:18:12;19.70;99.90
8269;DHT22;4174;48.304;16.364;2023-08-17T02:24:15;19.60;99.90
8269;DHT22;4174;48.304;16.364;2023-08-17T02:30:19;19.50;99.90
8269;DHT22;4174;48.304;16.364;2023-08-17T02:36:23;19.40;99.90
8269;DHT22;4174;48.304;16.364;2023-08-17T02:42:26;19.50;99.90
8269;DHT22;4174;48.304;16.364;2023-08-17T02:48:30;19.50;99.90
8269;DHT22;4174;48.304;16.364;2023-08-17T02:54:33;19.50;99.90
8269;DHT22;4174;48.304;16.364;2023-08-17T03:00:37;19.40;99.90
8269;DHT22;4174;48.304;16.364;2023-08-17T03:06:41;19.40;99.90
8269;DHT22;4174;48.304;16.364;2023-08-17T03:12:46;19.20;99.90
8269;DHT22;4174;48.304;16.364;2023-08-17T03:18:51;19.20;99.90
8269;DHT22;4174;48.304;16.364;2023-08-17T03:24:55;19.20;99.90
8269;DHT22;4174;48.304;16.364;2023-08-17T03:30:58;19.30;99.90
8269;DHT22;4174;48.304;16.364;2023-08-17T03:37:02;19.40;99.90
8269;DHT22;4174;48.304;16.364;2023-08-17T03:43:05;19.30;99.90
8269;DHT22;4174;48.304;16.364;2023-08-17T03:49:10;19.30;99.90
8269;DHT22;4174;48.304;16.364;2023-08-17T03:55:14;19.30;99.90
8269;DHT22;4174;48.304;16.364;2023-08-17T04:01:18;19.30;99.90
8269;DHT22;4174;48.304;16.364;2023-08-17T04:07:23;19.40;99.90
8269;DHT22;4174;48.304;16.364;2023-08-17T04:13:27;19.40;99.90
8269;DHT22;4174;48.304;16.364;2023-08-17T04:19:30;19.40;99.90
8269;DHT22;4174;48.304;16.364;2023-08-17T04:25:35;19.50;99.90
8269;DHT22;4174;48.304;16.364;2023-08-17T04:31:38;19.40;99.90
8269;DHT22;4174;48.304;16.364;2023-08-17T04:37:42;19.50;99.90
8269;DHT22;4174;48.304;16.364;2023-08-17T04:43:46;19.50;99.90
8269;DHT22;4174;48.304;16.364;2023-08-17T04:49:49;19.60;99.90
8269;DHT22;4174;48.304;16.364;2023-08-17T04:55:53;19.60;99.90
8269;DHT22;4174;48.304;16.364;2023-08-17T05:01:57;19.70;99.90
8269;DHT22;4174;48.304;16.364;2023-08-17T05:08:01;19.90;99.90
8269;DHT22;4174;48.304;16.364;2023-08-17T05:14:03;20.10;99.90
8269;DHT22;4174;48.304;16.364;2023-08-17T05:20:08;20.40;99.90
8269;DHT22;4174;48.304;16.364;2023-08-17T05:26:12;20.60;99.90
8269;DHT22;4174;48.304;16.364;2023-08-17T05:32:15;20.90;99.90
8269;DHT22;4174;48.304;16.364;2023-08-17T05:38:19;21.30;99.90
8269;DHT22;4174;48.304;16.364;2023-08-17T05:44:23;21.80;99.90
8269;DHT22;4174;48.304;16.364;2023-08-17T05:50:27;22.40;99.90
8269;DHT22;4174;48.304;16.364;2023-08-17T05:56:31;23.30;99.90
8269;DHT22;4174;48.304;16.364;2023-08-17T06:02:35;23.20;99.90
8269;DHT22;4174;48.304;16.364;2023-08-17T06:08:40;23.70;99.90
8269;DHT22;4174;48.304;16.364;2023-08-17T06:14:44;24.30;99.90
8269;DHT22;4174;48.304;16.364;2023-08-17T06:20:48;25.50;99.90
8269;DHT22;4174;48.304;16.364;2023-08-17T06:26:51;25.40;99.90
8269;DHT22;4174;48.304;16.364;2023-08-17T06:32:55;25.50;99.90
8269;DHT22;4174;48.304;16.364;2023-08-17T06:38:58;26.00;99.90
8269;DHT22;4174;48.304;16.364;2023-08-17T06:45:02;27.00;99.90
8269;DHT22;4174;48.304;16.364;2023-08-17T06:51:04;28.20;99.90
8269;DHT22;4174;48.304;16.364;2023-08-17T06:57:08;28.90;99.90
8269;DHT22;4174;48.304;16.364;2023-08-17T07:03:11;28.10;99.90
8269;DHT22;4174;48.304;16.364;2023-08-17T07:09:16;28.30;99.90
8269;DHT22;4174;48.304;16.364;2023-08-17T07:15:20;28.20;99.90
8269;DHT22;4174;48.304;16.364;2023-08-17T07:21:23;28.50;99.90
8269;DHT22;4174;48.304;16.364;2023-08-17T07:27:28;28.00;99.90
8269;DHT22;4174;48.304;16.364;2023-08-17T07:33:31;28.00;99.90
8269;DHT22;4174;48.304;16.364;2023-08-17T07:39:35;27.50;99.90
8269;DHT22;4174;48.304;16.364;2023-08-17T07:45:39;27.40;99.90
8269;DHT22;4174;48.304;16.364;2023-08-17T07:51:43;27.40;99.90
8269;DHT22;4174;48.304;16.364;2023-08-17T07:57:46;27.80;99.90
8269;DHT22;4174;48.304;16.364;2023-08-17T08:03:50;28.70;99.90
8269;DHT22;4174;48.304;16.364;2023-08-17T08:09:55;29.10;99.90
8269;DHT22;4174;48.304;16.364;2023-08-17T08:15:59;27.80;99.90
8269;DHT22;4174;48.304;16.364;2023-08-17T08:22:02;27.10;99.90
8269;DHT22;4174;48.304;16.364;2023-08-17T08:28:06;26.70;99.90
8269;DHT22;4174;48.304;16.364;2023-08-17T08:34:10;26.30;99.90
8269;DHT22;4174;48.304;16.364;2023-08-17T08:40:13;26.20;99.90
8269;DHT22;4174;48.304;16.364;2023-08-17T08:46:16;26.00;99.90
8269;DHT22;4174;48.304;16.364;2023-08-17T08:52:19;25.70;99.90
8269;DHT22;4174;48.304;16.364;2023-08-17T08:58:21;25.30;99.90
8269;DHT22;4174;48.304;16.364;2023-08-17T09:04:25;25.50;99.90
8269;DHT22;4174;48.304;16.364;2023-08-17T09:10:29;25.60;99.90
8269;DHT22;4174;48.304;16.364;2023-08-17T09:16:32;25.50;99.90
8269;DHT22;4174;48.304;16.364;2023-08-17T09:22:41;26.00;99.90
8269;DHT22;4174;48.304;16.364;2023-08-17T09:28:43;26.20;99.90
8269;DHT22;4174;48.304;16.364;2023-08-17T09:34:47;26.20;99.90
8269;DHT22;4174;48.304;16.364;2023-08-17T09:40:50;26.50;99.90
8269;DHT22;4174;48.304;16.364;2023-08-17T09:46:55;26.80;99.90
8269;DHT22;4174;48.304;16.364;2023-08-17T09:52:59;27.40;99.90
8269;DHT22;4174;48.304;16.364;2023-08-17T09:59:02;27.40;99.90
8269;DHT22;4174;48.304;16.364;2023-08-17T10:05:06;28.20;99.90
8269;DHT22;4174;48.304;16.364;2023-08-17T10:11:09;30.10;99.90
8269;DHT22;4174;48.304;16.364;2023-08-17T10:17:12;31.50;99.90
8269;DHT22;4174;48.304;16.364;2023-08-17T10:23:16;32.80;99.90
8269;DHT22;4174;48.304;16.364;2023-08-17T10:29:17;32.40;99.10
8269;DHT22;4174;48.304;16.364;2023-08-17T10:35:20;33.00;99.90
8269;DHT22;4174;48.304;16.364;2023-08-17T10:41:24;32.50;97.40
8269;DHT22;4174;48.304;16.364;2023-08-17T10:47:28;32.40;99.90
8269;DHT22;4174;48.304;16.364;2023-08-17T10:53:34;33.10;97.10
8269;DHT22;4174;48.304;16.364;2023-08-17T10:59:37;33.50;97.00
8269;DHT22;4174;48.304;16.364;2023-08-17T11:05:42;33.20;94.50
8269;DHT22;4174;48.304;16.364;2023-08-17T11:11:52;32.90;91.00
8269;DHT22;4174;48.304;16.364;2023-08-17T11:17:54;32.30;92.10
8269;DHT22;4174;48.304;16.364;2023-08-17T11:23:58;32.50;89.80
8269;DHT22;4174;48.304;16.364;2023-08-17T11:30:00;32.50;87.40
8269;DHT22;4174;48.304;16.364;2023-08-17T11:36:06;32.70;93.50
8269;DHT22;4174;48.304;16.364;2023-08-17T11:42:08;33.20;86.00
8269;DHT22;4174;48.304;16.364;2023-08-17T11:48:12;33.10;86.60
8269;DHT22;4174;48.304;16.364;2023-08-17T11:54:15;33.60;82.00
8269;DHT22;4174;48.304;16.364;2023-08-17T12:00:20;33.40;93.00
8269;DHT22;4174;48.304;16.364;2023-08-17T12:06:21;33.40;89.00
8269;DHT22;4174;48.304;16.364;2023-08-17T12:12:25;33.90;88.50
8269;DHT22;4174;48.304;16.364;2023-08-17T12:18:30;33.80;77.60
8269;DHT22;4174;48.304;16.364;2023-08-17T12:24:34;32.40;76.90
8269;DHT22;4174;48.304;16.364;2023-08-17T12:30:37;31.50;82.50
8269;DHT22;4174;48.304;16.364;2023-08-17T12:36:42;31.50;82.40
8269;DHT22;4174;48.304;16.364;2023-08-17T12:42:44;31.00;87.10
8269;DHT22;4174;48.304;16.364;2023-08-17T12:48:47;30.80;91.20
8269;DHT22;4174;48.304;16.364;2023-08-17T12:54:52;31.00;91.10
8269;DHT22;4174;48.304;16.364;2023-08-17T13:00:56;30.70;88.00
8269;DHT22;4174;48.304;16.364;2023-08-17T13:06:59;31.00;86.40
8269;DHT22;4174;48.304;16.364;2023-08-17T13:13:04;31.00;90.10
8269;DHT22;4174;48.304;16.364;2023-08-17T13:19:07;30.90;90.00
8269;DHT22;4174;48.304;16.364;2023-08-17T13:25:11;30.90;89.80
8269;DHT22;4174;48.304;16.364;2023-08-17T13:31:14;30.40;88.40
8269;DHT22;4174;48.304;16.364;2023-08-17T13:37:18;30.50;91.70
8269;DHT22;4174;48.304;16.364;2023-08-17T13:43:21;30.30;86.50
8269;DHT22;4174;48.304;16.364;2023-08-17T13:49:26;30.00;93.10
8269;DHT22;4174;48.304;16.364;2023-08-17T13:55:30;30.00;93.20
8269;DHT22;4174;48.304;16.364;2023-08-17T14:01:34;30.10;89.10
8269;DHT22;4174;48.304;16.364;2023-08-17T14:07:38;30.20;86.60
8269;DHT22;4174;48.304;16.364;2023-08-17T14:13:43;30.10;86.60
8269;DHT22;4174;48.304;16.364;2023-08-17T14:19:47;30.20;90.70
8269;DHT22;4174;48.304;16.364;2023-08-17T14:25:51;30.20;93.50
8269;DHT22;4174;48.304;16.364;2023-08-17T14:31:54;30.20;92.40
8269;DHT22;4174;48.304;16.364;2023-08-17T14:37:58;29.70;88.40
8269;DHT22;4174;48.304;16.364;2023-08-17T14:44:02;29.00;96.90
8269;DHT22;4174;48.304;16.364;2023-08-17T14:50:06;29.20;99.90
8269;DHT22;4174;48.304;16.364;2023-08-17T14:56:09;29.40;94.90
8269;DHT22;4174;48.304;16.364;2023-08-17T15:02:13;29.50;94.40
8269;DHT22;4174;48.304;16.364;2023-08-17T15:08:17;29.70;96.60
8269;DHT22;4174;48.304;16.364;2023-08-17T15:14:20;29.30;91.80
8269;DHT22;4174;48.304;16.364;2023-08-17T15:20:24;28.20;95.80
8269;DHT22;4174;48.304;16.364;2023-08-17T15:26:28;28.10;95.70
8269;DHT22;4174;48.304;16.364;2023-08-17T15:32:31;27.80;99.90
8269;DHT22;4174;48.304;16.364;2023-08-17T15:38:35;27.60;99.90
8269;DHT22;4174;48.304;16.364;2023-08-17T15:44:38;27.40;99.90
8269;DHT22;4174;48.304;16.364;2023-08-17T15:50:43;27.70;99.90
8269;DHT22;4174;48.304;16.364;2023-08-17T15:56:48;28.00;99.90
8269;DHT22;4174;48.304;16.364;2023-08-17T16:02:51;28.00;99.90
8269;DHT22;4174;48.304;16.364;2023-08-17T16:08:54;28.20;99.90
8269;DHT22;4174;48.304;16.364;2023-08-17T16:14:59;28.20;97.60
8269;DHT22;4174;48.304;16.364;2023-08-17T16:21:03;28.30;98.60
8269;DHT22;4174;48.304;16.364;2023-08-17T16:27:07;28.50;98.70
8269;DHT22;4174;48.304;16.364;2023-08-17T16:33:10;28.50;98.60
8269;DHT22;4174;48.304;16.364;2023-08-17T16:39:14;28.20;96.50
8269;DHT22;4174;48.304;16.364;2023-08-17T16:45:18;28.10;97.70
8269;DHT22;4174;48.304;16.364;2023-08-17T16:51:22;28.20;98.40
8269;DHT22;4174;48.304;16.364;2023-08-17T16:57:26;27.90;98.80
8269;DHT22;4174;48.304;16.364;2023-08-17T17:03:29;27.60;99.70
8269;DHT22;4174;48.304;16.364;2023-08-17T17:09:33;27.20;99.90
8269;DHT22;4174;48.304;16.364;2023-08-17T17:15:37;26.70;99.90
8269;DHT22;4174;48.304;16.364;2023-08-17T17:21:40;26.50;99.90
8269;DHT22;4174;48.304;16.364;2023-08-17T17:27:44;26.40;99.90
8269;DHT22;4174;48.304;16.364;2023-08-17T17:33:49;26.20;99.90
8269;DHT22;4174;48.304;16.364;2023-08-17T17:39:53;26.20;99.90
8269;DHT22;4174;48.304;16.364;2023-08-17T17:45:57;25.90;99.90
8269;DHT22;4174;48.304;16.364;2023-08-17T17:52:00;25.80;99.90
8269;DHT22;4174;48.304;16.364;2023-08-17T17:58:03;25.80;99.90
8269;DHT22;4174;48.304;16.364;2023-08-17T18:04:07;25.60;99.90
8269;DHT22;4174;48.304;16.364;2023-08-17T18:10:11;25.40;99.90
8269;DHT22;4174;48.304;16.364;2023-08-17T18:16:15;25.50;99.90
8269;DHT22;4174;48.304;16.364;2023-08-17T18:22:19;25.40;99.90
8269;DHT22;4174;48.304;16.364;2023-08-17T18:28:21;25.40;99.90
8269;DHT22;4174;48.304;16.364;2023-08-17T18:34:26;25.40;99.90
8269;DHT22;4174;48.304;16.364;2023-08-17T18:40:30;25.30;99.90
8269;DHT22;4174;48.304;16.364;2023-08-17T18:46:33;25.30;99.90
8269;DHT22;4174;48.304;16.364;2023-08-17T18:52:37;25.30;99.90
8269;DHT22;4174;48.304;16.364;2023-08-17T18:58:41;25.20;99.90
8269;DHT22;4174;48.304;16.364;2023-08-17T19:04:45;25.20;99.90
8269;DHT22;4174;48.304;16.364;2023-08-17T19:10:48;25.20;99.90
8269;DHT22;4174;48.304;16.364;2023-08-17T19:16:52;25.20;99.90
8269;DHT22;4174;48.304;16.364;2023-08-17T19:22:55;25.10;99.90
8269;DHT22;4174;48.304;16.364;2023-08-17T19:29:00;24.90;99.90
8269;DHT22;4174;48.304;16.364;2023-08-17T19:35:04;24.80;99.90
8269;DHT22;4174;48.304;16.364;2023-08-17T19:41:08;24.70;99.90
8269;DHT22;4174;48.304;16.364;2023-08-17T19:47:11;24.70;99.90
8269;DHT22;4174;48.304;16.364;2023-08-17T19:53:15;24.50;99.90
8269;DHT22;4174;48.304;16.364;2023-08-17T19:59:18;24.40;99.90
8269;DHT22;4174;48.304;16.364;2023-08-17T20:05:22;24.30;99.90
8269;DHT22;4174;48.304;16.364;2023-08-17T20:11:25;24.20;99.90
8269;DHT22;4174;48.304;16.364;2023-08-17T20:17:29;24.10;99.90
8269;DHT22;4174;48.304;16.364;2023-08-17T20:23:32;24.00;99.90
8269;DHT22;4174;48.304;16.364;2023-08-17T20:29:36;23.80;99.90
8269;DHT22;4174;48.304;16.364;2023-08-17T20:35:39;23.70;99.90
8269;DHT22;4174;48.304;16.364;2023-08-17T20:41:42;23.70;99.90
8269;DHT22;4174;48.304;16.364;2023-08-17T20:47:46;23.70;99.90
8269;DHT22;4174;48.304;16.364;2023-08-17T20:53:49;23.60;99.90
8269;DHT22;4174;48.304;16.364;2023-08-17T20:59:52;23.50;99.90
8269;DHT22;4174;48.304;16.364;2023-08-17T21:06:02;23.30;99.90
8269;DHT22;4174;48.304;16.364;2023-08-17T21:12:06;23.20;99.90
8269;DHT22;4174;48.304;16.364;2023-08-17T21:18:09;23.20;99.90
8269;DHT22;4174;48.304;16.364;2023-08-17T21:24:13;23.20;99.90
8269;DHT22;4174;48.304;16.364;2023-08-17T21:30:17;23.20;99.90
8269;DHT22;4174;48.304;16.364;2023-08-17T21:36:20;23.10;99.90
8269;DHT22;4174;48.304;16.364;2023-08-17T21:42:23;23.10;99.90
8269;DHT22;4174;48.304;16.364;2023-08-17T21:48:27;23.00;99.90
8269;DHT22;4174;48.304;16.364;2023-08-17T21:54:30;23.00;99.90
8269;DHT22;4174;48.304;16.364;2023-08-17T22:00:34;22.90;99.90
8269;DHT22;4174;48.304;16.364;2023-08-17T22:06:37;22.80;99.90
8269;DHT22;4174;48.304;16.364;2023-08-17T22:12:41;22.70;99.90
8269;DHT22;4174;48.304;16.364;2023-08-17T22:18:44;22.70;99.90
8269;DHT22;4174;48.304;16.364;2023-08-17T22:24:48;22.70;99.90
8269;DHT22;4174;48.304;16.364;2023-08-17T22:31:01;22.50;99.90
8269;DHT22;4174;48.304;16.364;2023-08-17T22:36:54;22.50;99.90
8269;DHT22;4174;48.304;16.364;2023-08-17T22:42:58;22.40;99.90
8269;DHT22;4174;48.304;16.364;2023-08-17T22:49:01;22.30;99.90
8269;DHT22;4174;48.304;16.364;2023-08-17T22:55:05;22.30;99.90
8269;DHT22;4174;48.304;16.364;2023-08-17T23:01:10;22.20;99.90
8269;DHT22;4174;48.304;16.364;2023-08-17T23:07:13;22.20;99.90
8269;DHT22;4174;48.304;16.364;2023-08-17T23:13:17;22.10;99.90
8269;DHT22;4174;48.304;16.364;2023-08-17T23:19:21;22.10;99.90
8269;DHT22;4174;48.304;16.364;2023-08-17T23:25:25;22.10;99.90
8269;DHT22;4174;48.304;16.364;2023-08-17T23:31:27;22.00;99.90
8269;DHT22;4174;48.304;16.364;2023-08-17T23:37:31;22.00;99.90
8269;DHT22;4174;48.304;16.364;2023-08-17T23:43:34;21.90;99.90
8269;DHT22;4174;48.304;16.364;2023-08-17T23:49:38;21.90;99.90
8269;DHT22;4174;48.304;16.364;2023-08-17T23:55:42;21.80;99.90
